| Back to River Map | <<< Previous Forecast Point | | | Next Forecast Point >>> | Printer Version | Graph Version |  |
|
SALINAS RIVER - SOLEDAD (SDDC1)
| Latitude: 36.41º N | Longitude: 121.32º W | Elevation: 151 Feet | | Forecast Type: Unofficial Location |
| Location: Monterey County in California | Bulletin Group: Central Coast | River Group: Salinas/Pajaro |
| Issuance Time: | Aug 31 2026 at 7:22 AM PDT | Next Issuance: | Sep 01 2026 at 9:00 AM PDT
| |
| Action/Monitor: 16.0 Feet | Minor Flood: 18.0 Feet | Moderate Flood: N/A | Major Flood: N/A |
# Tabular Observed and Forecast Hydrograph Information
#
# Location: Salinas River - Soledad (SDDC1)
#
# File Generation Time: 08/31/2026 at 07:24 AM PDT
# Data Interval: 1 Hour
#
# Most Recent Date & Time of Maximum Observed: 08/26/2026 at 11:00 AM PDT
# Maximum Observed Stage: 10.34 Feet
# Maximum Observed Flow: 298 cfs
#
# Earliest Date & Time of Maximum Forecast: 09/02/2026 at 09:00 PM PDT
# Maximum Forecast Stage: 10.22 Feet
# Maximum Forecast Flow: 256 cfs
#
# OBSERVED
#
# Date & Time (Local) Stage (Feet) Flow (cfs) Trend Observed Status
# ---------------------------------------------------------------------------------
08/26/2026 07 AM PDT 10.34 298 Normal
08/26/2026 08 AM PDT 10.25 266 - Normal
08/26/2026 09 AM PDT 10.26 270 + Normal
08/26/2026 10 AM PDT 10.23 260 - Normal
08/26/2026 11 AM PDT 10.34 298 + Normal
08/26/2026 12 PM PDT 10.28 277 - Normal
08/26/2026 01 PM PDT 10.28 277 0 Normal
08/26/2026 02 PM PDT 10.31 288 + Normal
08/26/2026 03 PM PDT 10.27 273 - Normal
08/26/2026 04 PM PDT 10.30 284 + Normal
08/26/2026 05 PM PDT 10.30 284 0 Normal
08/26/2026 06 PM PDT 10.31 288 + Normal
08/26/2026 07 PM PDT 10.25 266 - Normal
08/26/2026 08 PM PDT 10.24 263 - Normal
08/26/2026 09 PM PDT 10.26 270 + Normal
08/26/2026 10 PM PDT 10.24 263 - Normal
08/26/2026 11 PM PDT 10.28 277 + Normal
08/27/2026 12 AM PDT 10.29 281 + Normal
08/27/2026 01 AM PDT 10.26 270 - Normal
08/27/2026 02 AM PDT 10.26 270 0 Normal
08/27/2026 03 AM PDT 10.22 256 - Normal
08/27/2026 04 AM PDT 10.21 253 - Normal
08/27/2026 05 AM PDT 10.25 266 + Normal
08/27/2026 06 AM PDT 10.31 288 + Normal
08/27/2026 07 AM PDT 10.25 266 - Normal
08/27/2026 08 AM PDT 10.26 270 + Normal
08/27/2026 09 AM PDT 10.22 256 - Normal
08/27/2026 10 AM PDT 10.23 260 + Normal
08/27/2026 11 AM PDT 10.30 284 + Normal
08/27/2026 12 PM PDT 10.29 281 - Normal
08/27/2026 01 PM PDT 10.27 273 - Normal
08/27/2026 02 PM PDT 9.94 185 - Normal
08/27/2026 03 PM PDT 9.94 185 0 Normal
08/27/2026 04 PM PDT 9.93 182 - Normal
08/27/2026 05 PM PDT 9.93 182 0 Normal
08/27/2026 06 PM PDT 9.94 185 + Normal
08/27/2026 07 PM PDT 9.95 187 + Normal
08/27/2026 08 PM PDT 9.92 179 - Normal
08/27/2026 09 PM PDT 9.93 182 + Normal
08/27/2026 10 PM PDT 9.93 182 0 Normal
08/27/2026 11 PM PDT 9.93 182 0 Normal
08/28/2026 12 AM PDT 9.92 179 - Normal
08/28/2026 01 AM PDT 9.93 182 + Normal
08/28/2026 02 AM PDT 9.94 185 + Normal
08/28/2026 03 AM PDT 9.92 179 - Normal
08/28/2026 04 AM PDT 9.93 182 + Normal
08/28/2026 05 AM PDT 9.93 182 0 Normal
08/28/2026 06 AM PDT 9.94 185 + Normal
08/28/2026 07 AM PDT 9.93 182 - Normal
08/28/2026 08 AM PDT 9.94 185 + Normal
08/28/2026 09 AM PDT 9.96 190 + Normal
08/28/2026 10 AM PDT 9.94 185 - Normal
08/28/2026 11 AM PDT 10.19 247 + Normal
08/28/2026 12 PM PDT 10.21 253 + Normal
08/28/2026 01 PM PDT 10.21 253 0 Normal
08/28/2026 02 PM PDT 10.21 253 0 Normal
08/28/2026 03 PM PDT 10.22 256 + Normal
08/28/2026 04 PM PDT 10.21 253 - Normal
08/28/2026 05 PM PDT 10.23 260 + Normal
08/28/2026 06 PM PDT 10.24 263 + Normal
08/28/2026 07 PM PDT 10.22 256 - Normal
08/28/2026 08 PM PDT 10.24 263 + Normal
08/28/2026 09 PM PDT 10.20 249 - Normal
08/28/2026 10 PM PDT 10.21 253 + Normal
08/28/2026 11 PM PDT 10.21 253 0 Normal
08/29/2026 12 AM PDT 10.22 256 + Normal
08/29/2026 01 AM PDT 10.21 253 - Normal
08/29/2026 02 AM PDT 10.21 253 0 Normal
08/29/2026 03 AM PDT 10.20 249 - Normal
08/29/2026 04 AM PDT 10.22 256 + Normal
08/29/2026 05 AM PDT 10.21 253 - Normal
08/29/2026 06 AM PDT 10.19 247 - Normal
08/29/2026 07 AM PDT 10.20 249 + Normal
08/29/2026 08 AM PDT 10.19 247 - Normal
08/29/2026 09 AM PDT 10.22 256 + Normal
08/29/2026 10 AM PDT 10.20 249 - Normal
08/29/2026 11 AM PDT 10.19 247 - Normal
08/29/2026 12 PM PDT 10.18 244 - Normal
08/29/2026 01 PM PDT 10.17 242 - Normal
08/29/2026 02 PM PDT 10.18 244 + Normal
08/29/2026 03 PM PDT 10.17 242 - Normal
08/29/2026 04 PM PDT 10.18 244 + Normal
08/29/2026 05 PM PDT 10.20 249 + Normal
08/29/2026 06 PM PDT 10.18 244 - Normal
08/29/2026 07 PM PDT 10.17 242 - Normal
08/29/2026 08 PM PDT 10.17 242 0 Normal
08/29/2026 09 PM PDT 10.17 242 0 Normal
08/29/2026 10 PM PDT 10.16 239 - Normal
08/29/2026 11 PM PDT 10.17 242 + Normal
08/30/2026 12 AM PDT 10.16 239 - Normal
08/30/2026 01 AM PDT 10.14 235 - Normal
08/30/2026 02 AM PDT 10.14 235 0 Normal
08/30/2026 03 AM PDT 10.14 235 0 Normal
08/30/2026 04 AM PDT 10.14 235 0 Normal
08/30/2026 05 AM PDT 10.14 235 0 Normal
08/30/2026 06 AM PDT 10.14 235 0 Normal
08/30/2026 07 AM PDT 10.15 237 + Normal
08/30/2026 08 AM PDT 10.17 242 + Normal
08/30/2026 09 AM PDT 10.17 242 0 Normal
08/30/2026 10 AM PDT 10.15 237 - Normal
08/30/2026 11 AM PDT 10.16 239 + Normal
08/30/2026 12 PM PDT 10.17 242 + Normal
08/30/2026 01 PM PDT 10.18 244 + Normal
08/30/2026 02 PM PDT 10.18 244 0 Normal
08/30/2026 03 PM PDT 10.17 242 - Normal
08/30/2026 04 PM PDT 10.19 247 + Normal
08/30/2026 05 PM PDT 10.18 244 - Normal
08/30/2026 06 PM PDT 10.17 242 - Normal
08/30/2026 07 PM PDT 10.17 242 0 Normal
08/30/2026 08 PM PDT 10.18 244 + Normal
08/30/2026 09 PM PDT 10.17 242 - Normal
08/30/2026 10 PM PDT 10.17 242 0 Normal
08/30/2026 11 PM PDT 10.17 242 0 Normal
08/31/2026 12 AM PDT 10.17 242 0 Normal
08/31/2026 01 AM PDT 10.18 244 + Normal
08/31/2026 02 AM PDT 10.18 244 0 Normal
08/31/2026 03 AM PDT 10.19 247 + Normal
08/31/2026 04 AM PDT 10.18 244 - Normal
08/31/2026 05 AM PDT 10.19 247 + Normal
08/31/2026 06 AM PDT 10.21 253 + Normal
08/31/2026 07 AM PDT 10.21 253 0 Normal
#
# FORECAST
#
# Date & Time (Local) Stage (Feet) Flow (cfs) Trend Forecast Status
# ---------------------------------------------------------------------------------
08/31/2026 08 AM PDT 10.21 253 Normal
08/31/2026 09 AM PDT 10.21 253 0 Normal
08/31/2026 10 AM PDT 10.21 253 0 Normal
08/31/2026 11 AM PDT 10.21 253 0 Normal
08/31/2026 12 PM PDT 10.21 253 0 Normal
08/31/2026 01 PM PDT 10.21 253 0 Normal
08/31/2026 02 PM PDT 10.21 253 0 Normal
08/31/2026 03 PM PDT 10.21 253 0 Normal
08/31/2026 04 PM PDT 10.21 253 0 Normal
08/31/2026 05 PM PDT 10.21 253 0 Normal
08/31/2026 06 PM PDT 10.21 253 0 Normal
08/31/2026 07 PM PDT 10.21 253 0 Normal
08/31/2026 08 PM PDT 10.21 253 0 Normal
08/31/2026 09 PM PDT 10.21 253 0 Normal
08/31/2026 10 PM PDT 10.21 253 0 Normal
08/31/2026 11 PM PDT 10.21 253 0 Normal
09/01/2026 12 AM PDT 10.21 253 0 Normal
09/01/2026 01 AM PDT 10.21 253 0 Normal
09/01/2026 02 AM PDT 10.21 253 0 Normal
09/01/2026 03 AM PDT 10.21 253 0 Normal
09/01/2026 04 AM PDT 10.21 253 0 Normal
09/01/2026 05 AM PDT 10.21 253 0 Normal
09/01/2026 06 AM PDT 10.21 253 0 Normal
09/01/2026 07 AM PDT 10.21 253 0 Normal
09/01/2026 08 AM PDT 10.21 253 0 Normal
09/01/2026 09 AM PDT 10.21 253 0 Normal
09/01/2026 10 AM PDT 10.21 253 0 Normal
09/01/2026 11 AM PDT 10.21 253 0 Normal
09/01/2026 12 PM PDT 10.21 253 0 Normal
09/01/2026 01 PM PDT 10.21 253 0 Normal
09/01/2026 02 PM PDT 10.21 253 0 Normal
09/01/2026 03 PM PDT 10.21 253 0 Normal
09/01/2026 04 PM PDT 10.21 253 0 Normal
09/01/2026 05 PM PDT 10.21 253 0 Normal
09/01/2026 06 PM PDT 10.21 253 0 Normal
09/01/2026 07 PM PDT 10.21 253 0 Normal
09/01/2026 08 PM PDT 10.21 253 0 Normal
09/01/2026 09 PM PDT 10.21 253 0 Normal
09/01/2026 10 PM PDT 10.21 253 0 Normal
09/01/2026 11 PM PDT 10.21 253 0 Normal
09/02/2026 12 AM PDT 10.21 253 0 Normal
09/02/2026 01 AM PDT 10.21 253 0 Normal
09/02/2026 02 AM PDT 10.21 253 0 Normal
09/02/2026 03 AM PDT 10.21 253 0 Normal
09/02/2026 04 AM PDT 10.21 253 0 Normal
09/02/2026 05 AM PDT 10.21 253 0 Normal
09/02/2026 06 AM PDT 10.21 253 0 Normal
09/02/2026 07 AM PDT 10.21 253 0 Normal
09/02/2026 08 AM PDT 10.21 253 0 Normal
09/02/2026 09 AM PDT 10.21 253 0 Normal
09/02/2026 10 AM PDT 10.21 253 0 Normal
09/02/2026 11 AM PDT 10.21 253 0 Normal
09/02/2026 12 PM PDT 10.21 253 0 Normal
09/02/2026 01 PM PDT 10.21 253 0 Normal
09/02/2026 02 PM PDT 10.21 253 0 Normal
09/02/2026 03 PM PDT 10.21 253 0 Normal
09/02/2026 04 PM PDT 10.21 253 0 Normal
09/02/2026 05 PM PDT 10.21 253 0 Normal
09/02/2026 06 PM PDT 10.21 253 0 Normal
09/02/2026 07 PM PDT 10.21 253 0 Normal
09/02/2026 08 PM PDT 10.21 253 0 Normal
09/02/2026 09 PM PDT 10.22 256 + Normal
09/02/2026 10 PM PDT 10.22 256 0 Normal
09/02/2026 11 PM PDT 10.22 256 0 Normal
09/03/2026 12 AM PDT 10.22 256 0 Normal
09/03/2026 01 AM PDT 10.22 256 0 Normal
09/03/2026 02 AM PDT 10.22 256 0 Normal
09/03/2026 03 AM PDT 10.22 256 0 Normal
09/03/2026 04 AM PDT 10.22 256 0 Normal
09/03/2026 05 AM PDT 10.22 256 0 Normal
09/03/2026 06 AM PDT 10.22 256 0 Normal
09/03/2026 07 AM PDT 10.22 256 0 Normal
09/03/2026 08 AM PDT 10.22 256 0 Normal
09/03/2026 09 AM PDT 10.22 256 0 Normal
09/03/2026 10 AM PDT 10.22 256 0 Normal
09/03/2026 11 AM PDT 10.22 256 0 Normal
09/03/2026 12 PM PDT 10.22 256 0 Normal
09/03/2026 01 PM PDT 10.22 256 0 Normal
09/03/2026 02 PM PDT 10.22 256 0 Normal
09/03/2026 03 PM PDT 10.22 256 0 Normal
09/03/2026 04 PM PDT 10.22 256 0 Normal
09/03/2026 05 PM PDT 10.22 256 0 Normal
09/03/2026 06 PM PDT 10.22 256 0 Normal
09/03/2026 07 PM PDT 10.22 256 0 Normal
09/03/2026 08 PM PDT 10.22 256 0 Normal
09/03/2026 09 PM PDT 10.22 256 0 Normal
09/03/2026 10 PM PDT 10.22 256 0 Normal
09/03/2026 11 PM PDT 10.22 256 0 Normal
09/04/2026 12 AM PDT 10.22 256 0 Normal
09/04/2026 01 AM PDT 10.22 256 0 Normal
09/04/2026 02 AM PDT 10.22 256 0 Normal
09/04/2026 03 AM PDT 10.22 256 0 Normal
09/04/2026 04 AM PDT 10.22 256 0 Normal
09/04/2026 05 AM PDT 10.22 256 0 Normal
09/04/2026 06 AM PDT 10.22 256 0 Normal
09/04/2026 07 AM PDT 10.22 256 0 Normal
09/04/2026 08 AM PDT 10.22 256 0 Normal
09/04/2026 09 AM PDT 10.22 256 0 Normal
09/04/2026 10 AM PDT 10.22 256 0 Normal
09/04/2026 11 AM PDT 10.22 256 0 Normal
09/04/2026 12 PM PDT 10.22 256 0 Normal
09/04/2026 01 PM PDT 10.22 256 0 Normal
09/04/2026 02 PM PDT 10.22 256 0 Normal
09/04/2026 03 PM PDT 10.22 256 0 Normal
09/04/2026 04 PM PDT 10.22 256 0 Normal
09/04/2026 05 PM PDT 10.22 256 0 Normal
09/04/2026 06 PM PDT 10.22 256 0 Normal
09/04/2026 07 PM PDT 10.22 256 0 Normal
09/04/2026 08 PM PDT 10.22 256 0 Normal
09/04/2026 09 PM PDT 10.22 256 0 Normal
09/04/2026 10 PM PDT 10.22 256 0 Normal
09/04/2026 11 PM PDT 10.22 256 0 Normal
09/05/2026 12 AM PDT 10.22 256 0 Normal
09/05/2026 01 AM PDT 10.22 256 0 Normal
09/05/2026 02 AM PDT 10.22 256 0 Normal
09/05/2026 03 AM PDT 10.22 256 0 Normal
09/05/2026 04 AM PDT 10.22 256 0 Normal
09/05/2026 05 AM PDT 10.22 256 0 Normal
#
# NOTE 1: Stages are rounded to the nearest hundredth (.01) of a foot.
# NOTE 2: Flows are rounded to the nearest (1) cfs.
# NOTE 3: Trends are determined using hourly change in unrounded stage and flow.
# NOTE 4: Maximum Values are determined using unrounded stage and flow.
|